sensor_id;sensor_type;location;lat;lon;timestamp;P1;durP1;ratioP1;P2;durP2;ratioP2
45043;SDS011;30784;48.490;9.688;2023-03-01T00:01:37;18.55;;;9.48;;
45043;SDS011;30784;48.490;9.688;2023-03-01T00:04:02;20.23;;;10.45;;
45043;SDS011;30784;48.490;9.688;2023-03-01T00:06:28;18.92;;;9.90;;
45043;SDS011;30784;48.490;9.688;2023-03-01T00:08:54;18.60;;;9.60;;
45043;SDS011;30784;48.490;9.688;2023-03-01T00:11:23;18.73;;;10.45;;
45043;SDS011;30784;48.490;9.688;2023-03-01T00:13:51;18.90;;;9.98;;
45043;SDS011;30784;48.490;9.688;2023-03-01T00:16:20;22.83;;;10.40;;
45043;SDS011;30784;48.490;9.688;2023-03-01T00:18:47;19.70;;;10.30;;
45043;SDS011;30784;48.490;9.688;2023-03-01T00:21:13;19.00;;;9.80;;
45043;SDS011;30784;48.490;9.688;2023-03-01T00:23:39;19.15;;;9.95;;
45043;SDS011;30784;48.490;9.688;2023-03-01T00:26:06;18.52;;;8.93;;
45043;SDS011;30784;48.490;9.688;2023-03-01T00:28:36;17.60;;;8.85;;
45043;SDS011;30784;48.490;9.688;2023-03-01T00:31:05;19.45;;;10.30;;
45043;SDS011;30784;48.490;9.688;2023-03-01T00:33:31;18.85;;;9.65;;
45043;SDS011;30784;48.490;9.688;2023-03-01T00:35:57;19.30;;;9.90;;
45043;SDS011;30784;48.490;9.688;2023-03-01T00:38:23;20.95;;;10.70;;
45043;SDS011;30784;48.490;9.688;2023-03-01T00:40:49;19.90;;;10.48;;
45043;SDS011;30784;48.490;9.688;2023-03-01T00:43:14;18.75;;;10.05;;
45043;SDS011;30784;48.490;9.688;2023-03-01T00:45:40;20.25;;;10.50;;
45043;SDS011;30784;48.490;9.688;2023-03-01T00:48:06;20.90;;;10.07;;
45043;SDS011;30784;48.490;9.688;2023-03-01T00:50:31;18.52;;;9.68;;
45043;SDS011;30784;48.490;9.688;2023-03-01T00:52:57;18.70;;;9.55;;
45043;SDS011;30784;48.490;9.688;2023-03-01T00:55:23;20.85;;;10.52;;
45043;SDS011;30784;48.490;9.688;2023-03-01T00:57:49;18.58;;;10.10;;
45043;SDS011;30784;48.490;9.688;2023-03-01T01:00:14;19.55;;;11.07;;
45043;SDS011;30784;48.490;9.688;2023-03-01T01:02:40;18.90;;;10.18;;
45043;SDS011;30784;48.490;9.688;2023-03-01T01:05:06;19.17;;;9.95;;
45043;SDS011;30784;48.490;9.688;2023-03-01T01:07:32;19.33;;;10.20;;
45043;SDS011;30784;48.490;9.688;2023-03-01T01:09:57;17.77;;;10.07;;
45043;SDS011;30784;48.490;9.688;2023-03-01T01:12:23;18.50;;;9.85;;
45043;SDS011;30784;48.490;9.688;2023-03-01T01:14:48;20.33;;;10.35;;
45043;SDS011;30784;48.490;9.688;2023-03-01T01:17:14;20.95;;;10.57;;
45043;SDS011;30784;48.490;9.688;2023-03-01T01:19:39;20.42;;;11.07;;
45043;SDS011;30784;48.490;9.688;2023-03-01T01:22:05;19.58;;;11.02;;
45043;SDS011;30784;48.490;9.688;2023-03-01T01:24:30;19.95;;;10.98;;
45043;SDS011;30784;48.490;9.688;2023-03-01T01:26:56;22.65;;;11.18;;
45043;SDS011;30784;48.490;9.688;2023-03-01T01:29:22;20.95;;;10.60;;
45043;SDS011;30784;48.490;9.688;2023-03-01T01:31:47;20.27;;;10.70;;
45043;SDS011;30784;48.490;9.688;2023-03-01T01:34:15;20.10;;;11.00;;
45043;SDS011;30784;48.490;9.688;2023-03-01T01:36:43;20.67;;;10.98;;
45043;SDS011;30784;48.490;9.688;2023-03-01T01:39:12;22.55;;;11.18;;
45043;SDS011;30784;48.490;9.688;2023-03-01T01:41:38;23.88;;;11.40;;
45043;SDS011;30784;48.490;9.688;2023-03-01T01:46:46;20.70;;;11.53;;
45043;SDS011;30784;48.490;9.688;2023-03-01T01:49:27;21.00;;;11.25;;
45043;SDS011;30784;48.490;9.688;2023-03-01T01:52:07;17.25;;;10.02;;
45043;SDS011;30784;48.490;9.688;2023-03-01T01:54:37;19.83;;;10.30;;
45043;SDS011;30784;48.490;9.688;2023-03-01T01:57:07;21.67;;;11.05;;
45043;SDS011;30784;48.490;9.688;2023-03-01T01:59:37;22.23;;;11.57;;
45043;SDS011;30784;48.490;9.688;2023-03-01T02:02:05;21.25;;;11.20;;
45043;SDS011;30784;48.490;9.688;2023-03-01T02:04:31;20.50;;;11.27;;
45043;SDS011;30784;48.490;9.688;2023-03-01T02:06:59;20.20;;;10.93;;
45043;SDS011;30784;48.490;9.688;2023-03-01T02:09:30;22.25;;;11.32;;
45043;SDS011;30784;48.490;9.688;2023-03-01T02:11:57;21.38;;;11.00;;
45043;SDS011;30784;48.490;9.688;2023-03-01T02:14:23;18.50;;;9.85;;
45043;SDS011;30784;48.490;9.688;2023-03-01T02:16:49;20.23;;;11.00;;
45043;SDS011;30784;48.490;9.688;2023-03-01T02:19:39;20.70;;;10.85;;
45043;SDS011;30784;48.490;9.688;2023-03-01T02:27:34;22.73;;;11.15;;
45043;SDS011;30784;48.490;9.688;2023-03-01T02:30:05;18.60;;;10.57;;
45043;SDS011;30784;48.490;9.688;2023-03-01T02:32:32;21.95;;;11.38;;
45043;SDS011;30784;48.490;9.688;2023-03-01T02:34:59;20.35;;;10.55;;
45043;SDS011;30784;48.490;9.688;2023-03-01T02:37:24;22.25;;;11.30;;
45043;SDS011;30784;48.490;9.688;2023-03-01T02:39:53;20.08;;;10.77;;
45043;SDS011;30784;48.490;9.688;2023-03-01T02:42:30;19.42;;;10.60;;
45043;SDS011;30784;48.490;9.688;2023-03-01T02:45:00;19.98;;;10.25;;
45043;SDS011;30784;48.490;9.688;2023-03-01T02:47:26;22.77;;;11.43;;
45043;SDS011;30784;48.490;9.688;2023-03-01T02:49:51;19.40;;;10.73;;
45043;SDS011;30784;48.490;9.688;2023-03-01T02:55:15;20.13;;;10.30;;
45043;SDS011;30784;48.490;9.688;2023-03-01T02:57:43;20.67;;;10.52;;
45043;SDS011;30784;48.490;9.688;2023-03-01T03:00:15;17.60;;;9.93;;
45043;SDS011;30784;48.490;9.688;2023-03-01T03:02:44;20.27;;;11.15;;
45043;SDS011;30784;48.490;9.688;2023-03-01T03:05:12;19.58;;;11.35;;
45043;SDS011;30784;48.490;9.688;2023-03-01T03:07:41;20.40;;;10.57;;
45043;SDS011;30784;48.490;9.688;2023-03-01T03:10:17;17.83;;;9.98;;
45043;SDS011;30784;48.490;9.688;2023-03-01T03:12:52;20.73;;;11.38;;
45043;SDS011;30784;48.490;9.688;2023-03-01T03:15:23;21.77;;;11.98;;
45043;SDS011;30784;48.490;9.688;2023-03-01T03:17:51;19.63;;;11.00;;
45043;SDS011;30784;48.490;9.688;2023-03-01T03:20:18;20.48;;;10.98;;
45043;SDS011;30784;48.490;9.688;2023-03-01T03:22:46;18.98;;;10.57;;
45043;SDS011;30784;48.490;9.688;2023-03-01T03:27:42;21.67;;;11.25;;
45043;SDS011;30784;48.490;9.688;2023-03-01T03:30:10;19.13;;;10.60;;
45043;SDS011;30784;48.490;9.688;2023-03-01T03:32:42;20.60;;;10.77;;
45043;SDS011;30784;48.490;9.688;2023-03-01T03:35:17;19.48;;;10.88;;
45043;SDS011;30784;48.490;9.688;2023-03-01T03:37:57;20.08;;;10.43;;
45043;SDS011;30784;48.490;9.688;2023-03-01T03:40:32;20.02;;;10.70;;
45043;SDS011;30784;48.490;9.688;2023-03-01T03:43:03;22.25;;;11.30;;
45043;SDS011;30784;48.490;9.688;2023-03-01T03:47:58;21.88;;;11.57;;
45043;SDS011;30784;48.490;9.688;2023-03-01T03:50:24;23.23;;;11.45;;
45043;SDS011;30784;48.490;9.688;2023-03-01T03:52:49;21.80;;;11.48;;
45043;SDS011;30784;48.490;9.688;2023-03-01T03:55:15;18.60;;;10.23;;
45043;SDS011;30784;48.490;9.688;2023-03-01T03:57:44;19.95;;;11.07;;
45043;SDS011;30784;48.490;9.688;2023-03-01T04:00:19;20.55;;;11.35;;
45043;SDS011;30784;48.490;9.688;2023-03-01T04:02:47;21.13;;;10.70;;
45043;SDS011;30784;48.490;9.688;2023-03-01T04:05:14;22.48;;;11.48;;
45043;SDS011;30784;48.490;9.688;2023-03-01T04:07:42;20.83;;;10.95;;
45043;SDS011;30784;48.490;9.688;2023-03-01T04:10:09;20.85;;;11.32;;
45043;SDS011;30784;48.490;9.688;2023-03-01T04:12:36;22.73;;;11.70;;
45043;SDS011;30784;48.490;9.688;2023-03-01T04:15:03;21.95;;;11.80;;
45043;SDS011;30784;48.490;9.688;2023-03-01T04:17:43;21.02;;;12.10;;
45043;SDS011;30784;48.490;9.688;2023-03-01T04:20:11;22.75;;;12.15;;
45043;SDS011;30784;48.490;9.688;2023-03-01T04:22:42;20.63;;;11.32;;
45043;SDS011;30784;48.490;9.688;2023-03-01T04:25:11;20.80;;;11.50;;
45043;SDS011;30784;48.490;9.688;2023-03-01T04:27:39;23.67;;;11.60;;
45043;SDS011;30784;48.490;9.688;2023-03-01T04:30:05;23.65;;;12.43;;
45043;SDS011;30784;48.490;9.688;2023-03-01T04:32:32;21.52;;;11.65;;
45043;SDS011;30784;48.490;9.688;2023-03-01T04:34:57;21.65;;;11.88;;
45043;SDS011;30784;48.490;9.688;2023-03-01T04:37:23;20.95;;;11.82;;
45043;SDS011;30784;48.490;9.688;2023-03-01T04:39:52;21.40;;;11.15;;
45043;SDS011;30784;48.490;9.688;2023-03-01T04:42:18;22.17;;;12.32;;
45043;SDS011;30784;48.490;9.688;2023-03-01T04:44:44;21.70;;;12.07;;
45043;SDS011;30784;48.490;9.688;2023-03-01T04:47:10;20.05;;;11.23;;
45043;SDS011;30784;48.490;9.688;2023-03-01T04:49:35;22.85;;;12.23;;
45043;SDS011;30784;48.490;9.688;2023-03-01T04:52:01;23.15;;;12.45;;
45043;SDS011;30784;48.490;9.688;2023-03-01T04:54:28;22.33;;;11.75;;
45043;SDS011;30784;48.490;9.688;2023-03-01T04:56:54;21.45;;;12.38;;
45043;SDS011;30784;48.490;9.688;2023-03-01T04:59:20;22.42;;;12.02;;
45043;SDS011;30784;48.490;9.688;2023-03-01T05:01:49;20.73;;;11.77;;
45043;SDS011;30784;48.490;9.688;2023-03-01T05:04:15;19.25;;;10.73;;
45043;SDS011;30784;48.490;9.688;2023-03-01T05:06:41;23.70;;;11.80;;
45043;SDS011;30784;48.490;9.688;2023-03-01T05:09:07;21.15;;;11.85;;
45043;SDS011;30784;48.490;9.688;2023-03-01T05:11:33;22.02;;;11.35;;
45043;SDS011;30784;48.490;9.688;2023-03-01T05:14:01;21.95;;;11.32;;
45043;SDS011;30784;48.490;9.688;2023-03-01T05:16:27;25.52;;;11.50;;
45043;SDS011;30784;48.490;9.688;2023-03-01T05:18:53;22.55;;;12.13;;
45043;SDS011;30784;48.490;9.688;2023-03-01T05:21:20;21.90;;;11.25;;
45043;SDS011;30784;48.490;9.688;2023-03-01T05:23:46;19.63;;;11.38;;
45043;SDS011;30784;48.490;9.688;2023-03-01T05:26:11;23.63;;;12.48;;
45043;SDS011;30784;48.490;9.688;2023-03-01T05:28:38;20.40;;;11.40;;
45043;SDS011;30784;48.490;9.688;2023-03-01T05:31:04;23.48;;;12.68;;
45043;SDS011;30784;48.490;9.688;2023-03-01T05:33:34;23.13;;;12.30;;
45043;SDS011;30784;48.490;9.688;2023-03-01T05:36:04;23.83;;;12.45;;
45043;SDS011;30784;48.490;9.688;2023-03-01T05:38:34;23.42;;;12.00;;
45043;SDS011;30784;48.490;9.688;2023-03-01T05:41:00;21.58;;;11.80;;
45043;SDS011;30784;48.490;9.688;2023-03-01T05:43:29;25.38;;;12.15;;
45043;SDS011;30784;48.490;9.688;2023-03-01T05:45:58;23.00;;;12.63;;
45043;SDS011;30784;48.490;9.688;2023-03-01T05:48:24;23.00;;;12.80;;
45043;SDS011;30784;48.490;9.688;2023-03-01T05:50:50;23.20;;;12.80;;
45043;SDS011;30784;48.490;9.688;2023-03-01T05:53:17;20.75;;;12.18;;
45043;SDS011;30784;48.490;9.688;2023-03-01T05:55:47;21.98;;;12.25;;
45043;SDS011;30784;48.490;9.688;2023-03-01T05:58:15;23.98;;;13.23;;
45043;SDS011;30784;48.490;9.688;2023-03-01T06:00:42;24.08;;;12.82;;
45043;SDS011;30784;48.490;9.688;2023-03-01T06:03:12;23.33;;;12.07;;
45043;SDS011;30784;48.490;9.688;2023-03-01T06:05:40;25.75;;;12.90;;
45043;SDS011;30784;48.490;9.688;2023-03-01T06:08:07;22.10;;;12.57;;
45043;SDS011;30784;48.490;9.688;2023-03-01T06:10:34;20.27;;;10.88;;
45043;SDS011;30784;48.490;9.688;2023-03-01T06:12:59;22.92;;;12.25;;
45043;SDS011;30784;48.490;9.688;2023-03-01T06:15:25;22.42;;;11.98;;
45043;SDS011;30784;48.490;9.688;2023-03-01T06:17:53;22.52;;;12.23;;
45043;SDS011;30784;48.490;9.688;2023-03-01T06:20:23;24.83;;;12.73;;
45043;SDS011;30784;48.490;9.688;2023-03-01T06:22:50;22.17;;;11.95;;
45043;SDS011;30784;48.490;9.688;2023-03-01T06:25:17;26.00;;;12.73;;
45043;SDS011;30784;48.490;9.688;2023-03-01T06:27:45;26.00;;;13.15;;
45043;SDS011;30784;48.490;9.688;2023-03-01T06:30:11;24.63;;;12.85;;
45043;SDS011;30784;48.490;9.688;2023-03-01T06:32:39;24.08;;;12.82;;
45043;SDS011;30784;48.490;9.688;2023-03-01T06:35:07;23.98;;;13.02;;
45043;SDS011;30784;48.490;9.688;2023-03-01T06:37:33;24.80;;;13.25;;
45043;SDS011;30784;48.490;9.688;2023-03-01T06:40:00;22.75;;;12.50;;
45043;SDS011;30784;48.490;9.688;2023-03-01T06:42:29;24.33;;;13.25;;
45043;SDS011;30784;48.490;9.688;2023-03-01T06:44:55;23.17;;;12.05;;
45043;SDS011;30784;48.490;9.688;2023-03-01T06:47:20;23.42;;;12.48;;
45043;SDS011;30784;48.490;9.688;2023-03-01T06:49:46;23.33;;;12.60;;
45043;SDS011;30784;48.490;9.688;2023-03-01T06:52:11;24.48;;;13.60;;
45043;SDS011;30784;48.490;9.688;2023-03-01T06:54:37;25.23;;;13.50;;
45043;SDS011;30784;48.490;9.688;2023-03-01T06:57:02;21.60;;;12.30;;
45043;SDS011;30784;48.490;9.688;2023-03-01T06:59:28;23.15;;;12.80;;
45043;SDS011;30784;48.490;9.688;2023-03-01T07:01:53;24.33;;;13.05;;
45043;SDS011;30784;48.490;9.688;2023-03-01T07:04:19;23.45;;;12.88;;
45043;SDS011;30784;48.490;9.688;2023-03-01T07:06:44;27.70;;;12.95;;
45043;SDS011;30784;48.490;9.688;2023-03-01T07:09:10;24.55;;;13.85;;
45043;SDS011;30784;48.490;9.688;2023-03-01T07:11:35;31.55;;;16.88;;
45043;SDS011;30784;48.490;9.688;2023-03-01T07:14:01;37.72;;;19.45;;
45043;SDS011;30784;48.490;9.688;2023-03-01T07:16:27;31.52;;;16.45;;
45043;SDS011;30784;48.490;9.688;2023-03-01T07:18:52;27.40;;;15.10;;
45043;SDS011;30784;48.490;9.688;2023-03-01T07:21:18;25.35;;;14.15;;
45043;SDS011;30784;48.490;9.688;2023-03-01T07:23:43;29.63;;;14.02;;
45043;SDS011;30784;48.490;9.688;2023-03-01T07:26:11;23.52;;;13.15;;
45043;SDS011;30784;48.490;9.688;2023-03-01T07:28:37;24.90;;;13.90;;
45043;SDS011;30784;48.490;9.688;2023-03-01T07:31:04;25.80;;;13.50;;
45043;SDS011;30784;48.490;9.688;2023-03-01T07:33:31;26.13;;;14.98;;
45043;SDS011;30784;48.490;9.688;2023-03-01T07:35:58;26.60;;;14.55;;
45043;SDS011;30784;48.490;9.688;2023-03-01T07:38:24;26.23;;;13.70;;
45043;SDS011;30784;48.490;9.688;2023-03-01T07:40:50;23.75;;;13.20;;
45043;SDS011;30784;48.490;9.688;2023-03-01T07:43:16;23.33;;;12.48;;
45043;SDS011;30784;48.490;9.688;2023-03-01T07:45:41;25.85;;;13.88;;
45043;SDS011;30784;48.490;9.688;2023-03-01T07:48:07;23.23;;;13.23;;
45043;SDS011;30784;48.490;9.688;2023-03-01T07:50:32;23.58;;;13.32;;
45043;SDS011;30784;48.490;9.688;2023-03-01T07:52:58;23.08;;;13.23;;
45043;SDS011;30784;48.490;9.688;2023-03-01T07:55:23;24.20;;;13.40;;
45043;SDS011;30784;48.490;9.688;2023-03-01T07:57:49;19.73;;;11.93;;
45043;SDS011;30784;48.490;9.688;2023-03-01T08:00:14;25.08;;;13.57;;
45043;SDS011;30784;48.490;9.688;2023-03-01T08:02:40;28.05;;;14.63;;
45043;SDS011;30784;48.490;9.688;2023-03-01T08:05:07;25.05;;;13.73;;
45043;SDS011;30784;48.490;9.688;2023-03-01T08:07:34;27.85;;;14.85;;
45043;SDS011;30784;48.490;9.688;2023-03-01T08:09:59;23.10;;;13.48;;
45043;SDS011;30784;48.490;9.688;2023-03-01T08:12:25;24.65;;;13.95;;
45043;SDS011;30784;48.490;9.688;2023-03-01T08:14:52;26.85;;;14.20;;
45043;SDS011;30784;48.490;9.688;2023-03-01T08:17:18;24.35;;;14.38;;
45043;SDS011;30784;48.490;9.688;2023-03-01T08:19:44;25.23;;;13.35;;
45043;SDS011;30784;48.490;9.688;2023-03-01T08:22:09;24.50;;;13.75;;
45043;SDS011;30784;48.490;9.688;2023-03-01T08:24:35;25.00;;;14.52;;
45043;SDS011;30784;48.490;9.688;2023-03-01T08:27:01;27.90;;;14.18;;
45043;SDS011;30784;48.490;9.688;2023-03-01T08:29:27;23.48;;;13.57;;
45043;SDS011;30784;48.490;9.688;2023-03-01T08:31:55;25.00;;;14.02;;
45043;SDS011;30784;48.490;9.688;2023-03-01T08:34:21;23.63;;;13.60;;
45043;SDS011;30784;48.490;9.688;2023-03-01T08:36:46;24.98;;;14.07;;
45043;SDS011;30784;48.490;9.688;2023-03-01T08:39:13;24.67;;;13.43;;
45043;SDS011;30784;48.490;9.688;2023-03-01T08:41:40;25.88;;;14.48;;
45043;SDS011;30784;48.490;9.688;2023-03-01T08:44:06;25.80;;;13.98;;
45043;SDS011;30784;48.490;9.688;2023-03-01T08:46:36;24.15;;;13.23;;
45043;SDS011;30784;48.490;9.688;2023-03-01T08:49:04;26.63;;;13.63;;
45043;SDS011;30784;48.490;9.688;2023-03-01T08:51:31;27.50;;;13.60;;
45043;SDS011;30784;48.490;9.688;2023-03-01T08:54:01;26.38;;;13.45;;
45043;SDS011;30784;48.490;9.688;2023-03-01T08:56:46;24.60;;;14.02;;
45043;SDS011;30784;48.490;9.688;2023-03-01T08:59:12;27.67;;;13.95;;
45043;SDS011;30784;48.490;9.688;2023-03-01T09:01:39;29.20;;;15.93;;
45043;SDS011;30784;48.490;9.688;2023-03-01T09:04:05;28.25;;;14.60;;
45043;SDS011;30784;48.490;9.688;2023-03-01T09:06:31;27.35;;;14.75;;
45043;SDS011;30784;48.490;9.688;2023-03-01T09:09:00;25.88;;;14.88;;
45043;SDS011;30784;48.490;9.688;2023-03-01T09:11:28;26.48;;;14.70;;
45043;SDS011;30784;48.490;9.688;2023-03-01T09:13:54;26.98;;;14.75;;
45043;SDS011;30784;48.490;9.688;2023-03-01T09:16:20;24.42;;;13.80;;
45043;SDS011;30784;48.490;9.688;2023-03-01T09:18:50;29.27;;;15.13;;
45043;SDS011;30784;48.490;9.688;2023-03-01T09:21:18;25.88;;;15.13;;
45043;SDS011;30784;48.490;9.688;2023-03-01T09:23:46;28.45;;;15.38;;
45043;SDS011;30784;48.490;9.688;2023-03-01T09:26:14;28.08;;;15.23;;
45043;SDS011;30784;48.490;9.688;2023-03-01T09:28:43;25.45;;;15.30;;
45043;SDS011;30784;48.490;9.688;2023-03-01T09:31:10;25.77;;;14.38;;
45043;SDS011;30784;48.490;9.688;2023-03-01T09:33:38;24.88;;;14.55;;
45043;SDS011;30784;48.490;9.688;2023-03-01T09:36:05;26.95;;;15.23;;
45043;SDS011;30784;48.490;9.688;2023-03-01T09:38:32;24.75;;;14.10;;
45043;SDS011;30784;48.490;9.688;2023-03-01T09:40:58;22.95;;;14.35;;
45043;SDS011;30784;48.490;9.688;2023-03-01T09:46:06;26.02;;;14.18;;
45043;SDS011;30784;48.490;9.688;2023-03-01T09:48:41;27.35;;;13.90;;
45043;SDS011;30784;48.490;9.688;2023-03-01T09:51:12;25.63;;;15.13;;
45043;SDS011;30784;48.490;9.688;2023-03-01T09:53:44;25.45;;;13.90;;
45043;SDS011;30784;48.490;9.688;2023-03-01T10:09:36;22.65;;;13.77;;
45043;SDS011;30784;48.490;9.688;2023-03-01T10:12:25;24.52;;;14.00;;
45043;SDS011;30784;48.490;9.688;2023-03-01T10:15:04;24.92;;;13.40;;
45043;SDS011;30784;48.490;9.688;2023-03-01T10:17:39;23.85;;;13.15;;
45043;SDS011;30784;48.490;9.688;2023-03-01T10:22:58;24.08;;;14.38;;
45043;SDS011;30784;48.490;9.688;2023-03-01T10:31:22;25.77;;;14.95;;
45043;SDS011;30784;48.490;9.688;2023-03-01T10:33:52;24.85;;;15.05;;
45043;SDS011;30784;48.490;9.688;2023-03-01T10:36:20;25.15;;;15.05;;
45043;SDS011;30784;48.490;9.688;2023-03-01T10:38:47;25.65;;;15.10;;
45043;SDS011;30784;48.490;9.688;2023-03-01T10:41:17;28.73;;;15.52;;
45043;SDS011;30784;48.490;9.688;2023-03-01T10:43:47;25.00;;;15.18;;
45043;SDS011;30784;48.490;9.688;2023-03-01T10:46:26;23.33;;;15.07;;
45043;SDS011;30784;48.490;9.688;2023-03-01T10:49:07;24.98;;;14.95;;
45043;SDS011;30784;48.490;9.688;2023-03-01T10:51:42;22.92;;;14.00;;
45043;SDS011;30784;48.490;9.688;2023-03-01T10:54:17;24.63;;;14.15;;
45043;SDS011;30784;48.490;9.688;2023-03-01T10:57:03;25.17;;;14.07;;
45043;SDS011;30784;48.490;9.688;2023-03-01T11:02:07;24.17;;;14.27;;
45043;SDS011;30784;48.490;9.688;2023-03-01T11:04:59;20.90;;;13.18;;
45043;SDS011;30784;48.490;9.688;2023-03-01T11:07:26;24.10;;;13.93;;
45043;SDS011;30784;48.490;9.688;2023-03-01T11:09:52;21.55;;;13.43;;
45043;SDS011;30784;48.490;9.688;2023-03-01T11:12:18;21.92;;;13.07;;
45043;SDS011;30784;48.490;9.688;2023-03-01T11:14:49;22.88;;;12.90;;
45043;SDS011;30784;48.490;9.688;2023-03-01T11:22:26;21.42;;;12.45;;
45043;SDS011;30784;48.490;9.688;2023-03-01T11:24:53;20.35;;;12.77;;
45043;SDS011;30784;48.490;9.688;2023-03-01T11:30:01;20.25;;;12.05;;
45043;SDS011;30784;48.490;9.688;2023-03-01T11:32:30;22.35;;;13.18;;
45043;SDS011;30784;48.490;9.688;2023-03-01T11:35:10;21.58;;;13.68;;
45043;SDS011;30784;48.490;9.688;2023-03-01T11:51:54;19.85;;;12.35;;
45043;SDS011;30784;48.490;9.688;2023-03-01T12:00:21;19.80;;;11.70;;
45043;SDS011;30784;48.490;9.688;2023-03-01T12:04:11;18.33;;;11.85;;
45043;SDS011;30784;48.490;9.688;2023-03-01T12:06:26;17.90;;;11.25;;
45043;SDS011;30784;48.490;9.688;2023-03-01T12:12:16;21.85;;;12.02;;
45043;SDS011;30784;48.490;9.688;2023-03-01T12:17:22;20.25;;;12.15;;
45043;SDS011;30784;48.490;9.688;2023-03-01T12:20:14;17.52;;;11.43;;
45043;SDS011;30784;48.490;9.688;2023-03-01T12:25:44;18.23;;;11.90;;
45043;SDS011;30784;48.490;9.688;2023-03-01T12:34:07;19.15;;;11.35;;
45043;SDS011;30784;48.490;9.688;2023-03-01T12:39:22;20.60;;;12.02;;
45043;SDS011;30784;48.490;9.688;2023-03-01T12:47:18;20.00;;;11.45;;
45043;SDS011;30784;48.490;9.688;2023-03-01T12:50:20;21.48;;;11.30;;
45043;SDS011;30784;48.490;9.688;2023-03-01T12:53:04;18.40;;;11.60;;
45043;SDS011;30784;48.490;9.688;2023-03-01T12:55:34;19.80;;;11.82;;
45043;SDS011;30784;48.490;9.688;2023-03-01T12:58:02;19.42;;;11.45;;
45043;SDS011;30784;48.490;9.688;2023-03-01T13:00:38;18.98;;;11.50;;
45043;SDS011;30784;48.490;9.688;2023-03-01T13:03:18;18.00;;;11.15;;
45043;SDS011;30784;48.490;9.688;2023-03-01T13:06:12;18.67;;;11.48;;
45043;SDS011;30784;48.490;9.688;2023-03-01T13:08:48;16.67;;;10.15;;
45043;SDS011;30784;48.490;9.688;2023-03-01T13:11:27;18.23;;;10.90;;
45043;SDS011;30784;48.490;9.688;2023-03-01T13:14:08;18.08;;;11.07;;
45043;SDS011;30784;48.490;9.688;2023-03-01T13:16:48;20.02;;;10.60;;
45043;SDS011;30784;48.490;9.688;2023-03-01T13:19:15;17.67;;;10.73;;
45043;SDS011;30784;48.490;9.688;2023-03-01T13:21:46;18.48;;;10.43;;
45043;SDS011;30784;48.490;9.688;2023-03-01T13:24:29;17.55;;;10.85;;
45043;SDS011;30784;48.490;9.688;2023-03-01T13:32:29;17.50;;;10.98;;
45043;SDS011;30784;48.490;9.688;2023-03-01T13:35:06;16.33;;;10.05;;
45043;SDS011;30784;48.490;9.688;2023-03-01T13:37:51;18.33;;;10.85;;
45043;SDS011;30784;48.490;9.688;2023-03-01T13:42:48;17.40;;;11.13;;
45043;SDS011;30784;48.490;9.688;2023-03-01T13:45:21;20.17;;;10.57;;
45043;SDS011;30784;48.490;9.688;2023-03-01T13:47:49;16.70;;;10.27;;
45043;SDS011;30784;48.490;9.688;2023-03-01T13:50:20;17.60;;;10.60;;
45043;SDS011;30784;48.490;9.688;2023-03-01T13:52:56;17.88;;;10.80;;
45043;SDS011;30784;48.490;9.688;2023-03-01T13:55:38;17.15;;;10.48;;
45043;SDS011;30784;48.490;9.688;2023-03-01T13:58:24;17.70;;;10.88;;
45043;SDS011;30784;48.490;9.688;2023-03-01T14:00:55;16.38;;;10.52;;
45043;SDS011;30784;48.490;9.688;2023-03-01T14:03:25;16.27;;;10.30;;
45043;SDS011;30784;48.490;9.688;2023-03-01T14:06:08;17.25;;;10.18;;
45043;SDS011;30784;48.490;9.688;2023-03-01T14:08:38;18.10;;;10.70;;
45043;SDS011;30784;48.490;9.688;2023-03-01T14:19:47;17.38;;;10.52;;
45043;SDS011;30784;48.490;9.688;2023-03-01T14:22:23;17.48;;;11.52;;
45043;SDS011;30784;48.490;9.688;2023-03-01T14:25:00;18.10;;;11.18;;
45043;SDS011;30784;48.490;9.688;2023-03-01T14:27:37;19.35;;;11.98;;
45043;SDS011;30784;48.490;9.688;2023-03-01T14:30:10;18.83;;;11.30;;
45043;SDS011;30784;48.490;9.688;2023-03-01T14:32:39;19.88;;;10.95;;
45043;SDS011;30784;48.490;9.688;2023-03-01T14:37:51;20.98;;;12.65;;
45043;SDS011;30784;48.490;9.688;2023-03-01T14:40:24;19.35;;;11.75;;
45043;SDS011;30784;48.490;9.688;2023-03-01T14:42:50;17.52;;;10.85;;
45043;SDS011;30784;48.490;9.688;2023-03-01T14:45:17;16.45;;;10.07;;
45043;SDS011;30784;48.490;9.688;2023-03-01T14:47:43;18.05;;;10.38;;
45043;SDS011;30784;48.490;9.688;2023-03-01T14:52:56;19.65;;;11.52;;
45043;SDS011;30784;48.490;9.688;2023-03-01T14:55:26;20.20;;;10.60;;
45043;SDS011;30784;48.490;9.688;2023-03-01T14:57:57;19.75;;;10.68;;
45043;SDS011;30784;48.490;9.688;2023-03-01T15:00:27;18.50;;;11.05;;
45043;SDS011;30784;48.490;9.688;2023-03-01T15:02:55;20.67;;;11.75;;
45043;SDS011;30784;48.490;9.688;2023-03-01T15:05:26;17.98;;;10.85;;
45043;SDS011;30784;48.490;9.688;2023-03-01T15:07:54;17.75;;;10.95;;
45043;SDS011;30784;48.490;9.688;2023-03-01T15:10:23;19.95;;;11.40;;
45043;SDS011;30784;48.490;9.688;2023-03-01T15:12:54;19.52;;;11.35;;
45043;SDS011;30784;48.490;9.688;2023-03-01T15:15:22;17.60;;;10.95;;
45043;SDS011;30784;48.490;9.688;2023-03-01T15:18:04;18.23;;;10.55;;
45043;SDS011;30784;48.490;9.688;2023-03-01T15:20:38;19.02;;;10.77;;
45043;SDS011;30784;48.490;9.688;2023-03-01T15:23:04;16.58;;;10.45;;
45043;SDS011;30784;48.490;9.688;2023-03-01T15:25:30;16.50;;;9.55;;
45043;SDS011;30784;48.490;9.688;2023-03-01T15:27:58;16.58;;;10.25;;
45043;SDS011;30784;48.490;9.688;2023-03-01T15:30:30;18.33;;;10.43;;
45043;SDS011;30784;48.490;9.688;2023-03-01T15:35:51;18.35;;;10.27;;
45043;SDS011;30784;48.490;9.688;2023-03-01T15:38:32;19.52;;;10.57;;
45043;SDS011;30784;48.490;9.688;2023-03-01T15:41:48;18.80;;;11.00;;
45043;SDS011;30784;48.490;9.688;2023-03-01T15:44:26;23.75;;;11.98;;
45043;SDS011;30784;48.490;9.688;2023-03-01T15:46:55;21.88;;;11.40;;
45043;SDS011;30784;48.490;9.688;2023-03-01T15:49:40;19.42;;;11.07;;
45043;SDS011;30784;48.490;9.688;2023-03-01T15:52:17;19.52;;;11.25;;
45043;SDS011;30784;48.490;9.688;2023-03-01T15:54:53;17.55;;;10.32;;
45043;SDS011;30784;48.490;9.688;2023-03-01T15:57:30;18.95;;;10.13;;
45043;SDS011;30784;48.490;9.688;2023-03-01T15:59:58;17.63;;;10.00;;
45043;SDS011;30784;48.490;9.688;2023-03-01T16:02:24;19.23;;;10.50;;
45043;SDS011;30784;48.490;9.688;2023-03-01T16:04:50;20.88;;;10.88;;
45043;SDS011;30784;48.490;9.688;2023-03-01T16:07:16;16.60;;;9.60;;
45043;SDS011;30784;48.490;9.688;2023-03-01T16:09:41;21.27;;;10.55;;
45043;SDS011;30784;48.490;9.688;2023-03-01T16:12:11;18.75;;;10.00;;
45043;SDS011;30784;48.490;9.688;2023-03-01T16:14:39;19.38;;;10.32;;
45043;SDS011;30784;48.490;9.688;2023-03-01T16:17:04;17.52;;;10.50;;
45043;SDS011;30784;48.490;9.688;2023-03-01T16:19:30;19.88;;;10.00;;
45043;SDS011;30784;48.490;9.688;2023-03-01T16:21:55;17.20;;;9.70;;
45043;SDS011;30784;48.490;9.688;2023-03-01T16:24:21;16.95;;;9.85;;
45043;SDS011;30784;48.490;9.688;2023-03-01T16:26:47;15.93;;;9.48;;
45043;SDS011;30784;48.490;9.688;2023-03-01T16:29:12;17.77;;;10.38;;
45043;SDS011;30784;48.490;9.688;2023-03-01T16:31:41;19.15;;;10.65;;
45043;SDS011;30784;48.490;9.688;2023-03-01T16:34:06;21.70;;;12.38;;
45043;SDS011;30784;48.490;9.688;2023-03-01T16:36:32;51.63;;;26.60;;